Huron, Indiana
Current Conditions -  °F | °C
As of 11:15 PM on Saturday 25 Oct 2014 (Local Time) from KDCY Reporting Station
Clear Clear  
Wind Chill: 62°   Ceiling: Unl
Heat Index: 62°   Visibility: 10mi
Dew Point: 53°   Wind: 8mph
Humidity: 73%   Direction: 270°W
Pressure: 29.98"   Gusts: NA
Location:  38.72°N, 86.67°W
Report Text: KDCY 260315Z AUTO 27007KT 10SM CLR 17/12 A2998 RMK AO2 T01660117
Loading
Personal Weather Stations






























Interactive Weather Map
Tropical Storm Tracking
New forecast layout! Learn more

10-Day Weather Forecast

Advertisements
Track Severe Weather on mobile